createdAt,value
2017-11-30T00:01:02.897Z,93727.77
2017-11-30T00:03:31.245Z,93734.83
2017-11-30T00:05:59.590Z,93732.70
2017-11-30T00:08:27.963Z,93728.59
2017-11-30T00:10:56.301Z,93723.88
2017-11-30T00:13:24.642Z,93723.88
2017-11-30T00:15:52.991Z,93730.54
2017-11-30T00:18:21.338Z,93726.31
2017-11-30T00:20:49.703Z,93731.88
2017-11-30T00:23:18.036Z,93728.45
2017-11-30T00:25:46.403Z,93733.70
2017-11-30T00:28:14.806Z,93729.66
2017-11-30T00:30:43.182Z,93728.09
2017-11-30T00:33:11.552Z,93734.03
2017-11-30T00:35:39.908Z,93735.61
2017-11-30T00:38:08.249Z,93734.76
2017-11-30T00:40:36.604Z,93733.17
2017-11-30T00:43:16.615Z,93732.82
2017-11-30T00:45:44.956Z,93724.56
2017-11-30T00:48:13.344Z,93727.48
2017-11-30T00:50:41.736Z,93720.63
2017-11-30T00:53:10.073Z,93725.87
2017-11-30T00:55:38.418Z,93716.12
2017-11-30T00:58:06.754Z,93717.51
2017-11-30T01:00:35.091Z,93719.91
2017-11-30T01:03:03.469Z,93719.02
2017-11-30T01:05:31.812Z,93712.81
2017-11-30T01:08:00.156Z,93711.82
2017-11-30T01:10:28.504Z,93708.79
2017-11-30T01:12:56.847Z,93711.19
2017-11-30T01:15:25.228Z,93712.52
2017-11-30T01:17:53.577Z,93703.89
2017-11-30T01:20:21.921Z,93705.28
2017-11-30T01:22:50.267Z,93705.39
2017-11-30T01:25:18.612Z,93698.25
2017-11-30T01:27:47.000Z,93704.25
2017-11-30T01:30:15.348Z,93702.78
2017-11-30T01:32:43.689Z,93704.11
2017-11-30T01:35:12.032Z,93699.09
2017-11-30T01:37:40.387Z,93704.77
2017-11-30T01:40:08.762Z,93705.84
2017-11-30T01:42:37.104Z,93699.24
2017-11-30T01:45:05.465Z,93698.70
2017-11-30T01:47:33.803Z,93697.11
2017-11-30T01:50:02.175Z,93695.39
2017-11-30T01:52:30.568Z,93696.31
2017-11-30T01:54:58.908Z,93699.35
2017-11-30T01:57:27.255Z,93695.78
2017-11-30T01:59:55.597Z,93694.68
2017-11-30T02:02:23.940Z,93688.78
2017-11-30T02:04:52.321Z,93683.28
2017-11-30T02:07:20.670Z,93684.88
2017-11-30T02:09:49.028Z,93690.13
2017-11-30T02:12:17.370Z,93686.06
2017-11-30T02:14:45.719Z,93689.52
2017-11-30T02:17:14.695Z,93682.52
2017-11-30T02:19:43.039Z,93681.10
2017-11-30T02:22:11.420Z,93685.88
2017-11-30T02:24:39.769Z,93690.19
2017-11-30T02:27:08.108Z,93685.97
2017-11-30T02:29:36.450Z,93682.02
2017-11-30T02:32:04.789Z,93677.03
2017-11-30T02:34:33.158Z,93675.11
2017-11-30T02:37:01.507Z,93671.18
2017-11-30T02:39:29.860Z,93668.64
2017-11-30T02:41:58.209Z,93661.71
2017-11-30T02:44:26.560Z,93666.25
2017-11-30T02:46:54.904Z,93656.40
2017-11-30T02:49:23.262Z,93659.60
2017-11-30T02:51:51.636Z,93657.52
2017-11-30T02:54:20.038Z,93650.87
2017-11-30T02:56:48.381Z,93642.27
2017-11-30T02:59:16.720Z,93649.54
2017-11-30T03:01:45.056Z,93649.23
2017-11-30T03:04:13.427Z,93639.25
2017-11-30T03:06:41.778Z,93640.91
2017-11-30T03:09:10.116Z,93639.72
2017-11-30T03:11:38.456Z,93642.23
2017-11-30T03:14:06.824Z,93637.87
2017-11-30T03:16:35.360Z,93638.56
2017-11-30T03:19:03.701Z,93634.23
2017-11-30T03:21:32.058Z,93642.27
2017-11-30T03:24:00.395Z,93632.93
2017-11-30T03:26:28.741Z,93636.27
2017-11-30T03:28:57.116Z,93629.30
2017-11-30T03:31:25.461Z,93634.34
2017-11-30T03:33:53.812Z,93632.16
2017-11-30T03:36:22.156Z,93634.78
2017-11-30T03:38:50.529Z,93640.25
2017-11-30T03:41:18.911Z,93633.53
2017-11-30T03:43:47.257Z,93636.63
2017-11-30T03:46:15.605Z,93634.92
2017-11-30T03:48:43.956Z,93643.11
2017-11-30T03:51:12.302Z,93639.81
2017-11-30T03:53:40.704Z,93636.63
2017-11-30T03:56:09.036Z,93636.94
2017-11-30T03:58:37.389Z,93636.08
2017-11-30T04:01:05.761Z,93642.19
2017-11-30T04:03:34.109Z,93637.87
2017-11-30T04:06:02.496Z,93640.52
2017-11-30T04:08:30.847Z,93637.09
2017-11-30T04:10:59.193Z,93637.41
2017-11-30T04:13:27.540Z,93635.13
2017-11-30T04:15:55.893Z,93634.59
2017-11-30T04:18:24.277Z,93632.20
2017-11-30T04:20:52.629Z,93623.94
2017-11-30T04:23:20.980Z,93635.59
2017-11-30T04:25:49.337Z,93641.00
2017-11-30T04:28:17.689Z,93639.38
2017-11-30T04:30:46.084Z,93640.61
2017-11-30T04:33:14.436Z,93634.77
2017-11-30T04:35:42.784Z,93638.75
2017-11-30T04:38:11.136Z,93640.24
2017-11-30T04:40:39.496Z,93643.33
2017-11-30T04:43:07.916Z,93639.30
2017-11-30T04:45:36.269Z,93640.03
2017-11-30T04:48:04.614Z,93644.23
2017-11-30T04:50:32.956Z,93641.31
2017-11-30T04:53:01.441Z,93640.95
2017-11-30T04:55:29.790Z,93636.75
2017-11-30T04:57:58.136Z,93630.77
2017-11-30T05:00:26.486Z,93631.05
2017-11-30T05:02:54.829Z,93628.84
2017-11-30T05:05:23.216Z,93631.31
2017-11-30T05:07:51.569Z,93628.31
2017-11-30T05:10:19.921Z,93632.45
2017-11-30T05:12:48.269Z,93627.23
2017-11-30T05:15:16.626Z,93625.88
2017-11-30T05:17:45.000Z,93612.30
2017-11-30T05:20:13.357Z,93613.72
2017-11-30T05:22:41.706Z,93610.16
2017-11-30T05:25:10.061Z,93614.47
2017-11-30T05:27:38.441Z,93616.19
2017-11-30T05:30:06.783Z,93606.42
2017-11-30T05:32:35.128Z,93602.21
2017-11-30T05:35:03.492Z,93601.41
2017-11-30T05:37:31.839Z,93609.73
2017-11-30T05:40:00.460Z,93606.84
2017-11-30T05:42:28.838Z,93604.82
2017-11-30T05:44:57.286Z,93600.34
2017-11-30T05:47:25.632Z,93595.59
2017-11-30T05:49:54.000Z,93594.97
2017-11-30T05:52:22.349Z,93594.88
2017-11-30T05:54:50.737Z,93592.83
2017-11-30T05:57:19.081Z,93590.61
2017-11-30T05:59:47.441Z,93589.23
2017-11-30T06:02:15.795Z,93594.16
2017-11-30T06:04:44.132Z,93590.78
2017-11-30T06:07:12.512Z,93592.51
2017-11-30T06:09:40.867Z,93589.98
2017-11-30T06:12:09.212Z,93583.17
2017-11-30T06:14:37.593Z,93589.52
2017-11-30T06:17:05.956Z,93590.58
2017-11-30T06:19:34.325Z,93589.24
2017-11-30T06:22:02.693Z,93583.04
2017-11-30T06:24:31.031Z,93581.48
2017-11-30T06:26:59.422Z,93579.48
2017-11-30T06:29:27.768Z,93571.20
2017-11-30T06:31:56.112Z,93578.34
2017-11-30T06:34:24.489Z,93570.84
2017-11-30T06:36:56.272Z,93570.91
2017-11-30T06:39:24.652Z,93580.97
2017-11-30T06:41:53.042Z,93573.39
2017-11-30T06:44:21.715Z,93576.57
2017-11-30T06:46:50.127Z,93574.17
2017-11-30T06:49:18.506Z,93582.47
2017-11-30T06:51:46.864Z,93575.78
2017-11-30T06:54:22.180Z,93577.50
2017-11-30T06:56:50.556Z,93589.76
2017-11-30T06:59:18.905Z,93595.52
2017-11-30T07:01:47.267Z,93591.09
2017-11-30T07:04:15.629Z,93602.23
2017-11-30T07:06:44.004Z,93589.89
2017-11-30T07:09:12.349Z,93591.56
2017-11-30T07:11:40.702Z,93581.18
2017-11-30T07:14:09.041Z,93583.44
2017-11-30T07:16:37.391Z,93581.80
2017-11-30T07:19:05.825Z,93585.20
2017-11-30T07:21:34.180Z,93585.53
2017-11-30T07:24:02.558Z,93586.56
2017-11-30T07:26:30.901Z,93581.13
2017-11-30T07:28:59.264Z,93576.73
2017-11-30T07:31:27.650Z,93582.35
2017-11-30T07:33:55.994Z,93584.61
2017-11-30T07:36:24.340Z,93591.30
2017-11-30T07:38:52.690Z,93600.50
2017-11-30T07:41:21.074Z,93593.53
2017-11-30T07:43:49.456Z,93587.19
2017-11-30T07:46:17.808Z,93598.53
2017-11-30T07:48:46.167Z,93597.79
2017-11-30T07:51:14.515Z,93597.72
2017-11-30T07:53:42.888Z,93590.98
2017-11-30T07:56:11.422Z,93596.78
2017-11-30T07:58:39.764Z,93594.64
2017-11-30T08:01:08.120Z,93600.17
2017-11-30T08:03:36.470Z,93595.36
2017-11-30T08:06:04.816Z,93589.77
2017-11-30T08:08:33.206Z,93586.38
2017-11-30T08:11:01.553Z,93588.86
2017-11-30T08:13:29.900Z,93589.45
2017-11-30T08:15:58.266Z,93596.63
2017-11-30T08:18:26.600Z,93590.13
2017-11-30T08:20:54.976Z,93589.38
2017-11-30T08:23:23.317Z,93589.73
2017-11-30T08:25:51.664Z,93586.28
2017-11-30T08:28:20.009Z,93588.53
2017-11-30T08:30:48.373Z,93582.41
2017-11-30T08:33:16.745Z,93585.09
2017-11-30T08:35:45.089Z,93586.73
2017-11-30T08:38:13.479Z,93582.83
2017-11-30T08:40:41.862Z,93581.50
2017-11-30T08:43:10.208Z,93585.56
2017-11-30T08:45:38.595Z,93583.98
2017-11-30T08:48:06.948Z,93584.33
2017-11-30T08:50:35.303Z,93580.30
2017-11-30T08:53:03.658Z,93582.05
2017-11-30T08:55:32.006Z,93586.91
2017-11-30T08:58:00.397Z,93590.52
2017-11-30T09:00:28.743Z,93580.84
2017-11-30T09:02:57.104Z,93581.58
2017-11-30T09:05:25.459Z,93579.74
2017-11-30T09:07:53.846Z,93577.69
2017-11-30T09:10:22.240Z,93579.59
2017-11-30T09:12:50.617Z,93576.31
2017-11-30T09:15:18.960Z,93577.98
2017-11-30T09:17:47.301Z,93576.17
2017-11-30T09:20:15.650Z,93575.84
2017-11-30T09:22:44.038Z,93574.44
2017-11-30T09:25:12.388Z,93574.11
2017-11-30T09:27:40.726Z,93575.83
2017-11-30T09:30:09.095Z,93571.09
2017-11-30T09:32:37.433Z,93571.12
2017-11-30T09:35:05.822Z,93572.92
2017-11-30T09:37:34.168Z,93576.77
2017-11-30T09:40:02.517Z,93574.13
2017-11-30T09:42:30.865Z,93571.09
2017-11-30T09:44:59.216Z,93575.83
2017-11-30T09:47:27.594Z,93573.39
2017-11-30T09:49:55.935Z,93570.02
2017-11-30T09:52:24.272Z,93573.53
2017-11-30T09:54:52.618Z,93564.63
2017-11-30T09:57:21.012Z,93564.42
2017-11-30T09:59:49.364Z,93568.81
2017-11-30T10:02:17.727Z,93564.36
2017-11-30T10:04:46.200Z,93563.41
2017-11-30T10:07:14.637Z,93559.18
2017-11-30T10:09:42.995Z,93552.87
2017-11-30T10:12:11.993Z,93554.45
2017-11-30T10:14:40.744Z,93552.46
2017-11-30T10:17:09.360Z,93545.05
2017-11-30T10:19:38.060Z,93547.55
2017-11-30T10:22:06.708Z,93551.94
2017-11-30T10:24:35.429Z,93552.42
2017-11-30T10:27:04.160Z,93548.80
2017-11-30T10:29:32.813Z,93544.86
2017-11-30T10:32:01.676Z,93544.25
2017-11-30T10:34:30.131Z,93539.81
2017-11-30T10:36:58.721Z,93541.83
2017-11-30T10:39:27.258Z,93539.04
2017-11-30T10:41:56.100Z,93536.09
2017-11-30T10:44:24.818Z,93538.81
2017-11-30T10:46:53.545Z,93542.17
2017-11-30T10:49:22.989Z,93539.42
2017-11-30T10:51:51.645Z,93539.13
2017-11-30T10:54:20.394Z,93534.05
2017-11-30T10:56:49.184Z,93536.09
2017-11-30T10:59:17.936Z,93533.23
2017-11-30T11:01:46.797Z,93531.77
2017-11-30T11:04:15.647Z,93532.16
2017-11-30T11:06:44.321Z,93532.58
2017-11-30T11:09:12.955Z,93536.81
2017-11-30T11:11:41.413Z,93532.73
2017-11-30T11:14:09.821Z,93532.50
2017-11-30T11:16:38.187Z,93529.53
2017-11-30T11:19:06.781Z,93529.27
2017-11-30T11:21:35.548Z,93532.16
2017-11-30T11:24:04.401Z,93536.22
2017-11-30T11:26:32.990Z,93532.53
2017-11-30T11:29:01.675Z,93530.91
2017-11-30T11:31:30.337Z,93528.86
2017-11-30T11:33:59.144Z,93530.09
2017-11-30T11:36:28.234Z,93531.25
2017-11-30T11:38:57.882Z,93528.48
2017-11-30T11:41:26.510Z,93531.88
2017-11-30T11:43:55.255Z,93525.48
2017-11-30T11:46:23.922Z,93526.71
2017-11-30T11:48:52.353Z,93531.86
2017-11-30T11:51:20.705Z,93529.45
2017-11-30T11:53:49.381Z,93530.50
2017-11-30T11:56:19.094Z,93523.70
2017-11-30T11:58:47.775Z,93530.62
2017-11-30T12:01:16.589Z,93524.48
2017-11-30T12:03:45.249Z,93520.59
2017-11-30T12:06:14.158Z,93519.17
2017-11-30T12:08:42.914Z,93525.80
2017-11-30T12:11:11.605Z,93519.06
2017-11-30T12:13:40.485Z,93524.70
2017-11-30T12:16:09.213Z,93523.86
2017-11-30T12:18:37.965Z,93519.31
2017-11-30T12:21:06.837Z,93522.70
2017-11-30T12:23:35.730Z,93518.41
2017-11-30T12:26:04.505Z,93514.00
2017-11-30T12:28:33.099Z,93517.13
2017-11-30T12:31:01.660Z,93516.52
2017-11-30T12:33:30.458Z,93520.08
2017-11-30T12:35:59.088Z,93523.31
2017-11-30T12:38:27.986Z,93521.09
2017-11-30T12:40:56.622Z,93522.25
2017-11-30T12:43:25.197Z,93524.55
2017-11-30T12:45:53.788Z,93514.60
2017-11-30T12:48:22.141Z,93516.33
2017-11-30T12:50:50.519Z,93517.00
2017-11-30T12:53:18.882Z,93510.50
2017-11-30T12:55:47.249Z,93509.72
2017-11-30T12:58:15.604Z,93509.43
2017-11-30T13:00:44.010Z,93510.27
2017-11-30T13:03:12.528Z,93508.89
2017-11-30T13:05:40.974Z,93508.73
2017-11-30T13:08:09.359Z,93509.02
2017-11-30T13:10:37.702Z,93506.87
2017-11-30T13:13:06.065Z,93512.97
2017-11-30T13:15:34.622Z,93509.56
2017-11-30T13:18:03.083Z,93513.30
2017-11-30T13:20:31.454Z,93519.57
2017-11-30T13:22:59.847Z,93512.13
2017-11-30T13:25:28.199Z,93513.88
2017-11-30T13:27:56.572Z,93512.20
2017-11-30T13:30:24.924Z,93508.15
2017-11-30T13:32:53.271Z,93511.77
2017-11-30T13:35:21.751Z,93503.30
2017-11-30T13:37:50.100Z,93512.90
2017-11-30T13:40:18.469Z,93506.02
2017-11-30T13:42:46.992Z,93507.69
2017-11-30T13:45:15.599Z,93505.84
2017-11-30T13:47:43.971Z,93508.27
2017-11-30T13:50:12.320Z,93507.68
2017-11-30T13:52:43.574Z,93512.33
2017-11-30T13:55:11.962Z,93507.44
2017-11-30T13:57:40.547Z,93510.02
2017-11-30T14:00:09.028Z,93499.03
2017-11-30T14:02:37.371Z,93508.55
2017-11-30T14:05:05.726Z,93511.82
2017-11-30T14:07:34.075Z,93514.63
2017-11-30T14:10:02.440Z,93513.46
2017-11-30T14:12:30.815Z,93520.08
2017-11-30T14:14:59.170Z,93516.55
2017-11-30T14:17:27.512Z,93520.31
2017-11-30T14:19:55.858Z,93507.55
2017-11-30T14:22:24.209Z,93513.81
2017-11-30T14:24:52.574Z,93517.31
2017-11-30T14:27:20.928Z,93520.33
2017-11-30T14:29:49.893Z,93520.80
2017-11-30T14:32:18.559Z,93517.58
2017-11-30T14:34:48.180Z,93525.72
2017-11-30T14:37:17.925Z,93522.48
2017-11-30T14:39:47.124Z,93525.02
2017-11-30T14:42:17.518Z,93522.66
2017-11-30T14:44:46.510Z,93529.14
2017-11-30T14:47:15.312Z,93523.64
2017-11-30T14:49:45.855Z,93529.55
2017-11-30T14:52:14.620Z,93531.34
2017-11-30T14:54:43.454Z,93531.89
2017-11-30T14:57:14.046Z,93530.09
2017-11-30T14:59:43.625Z,93536.05
2017-11-30T15:02:12.087Z,93543.16
2017-11-30T15:04:40.494Z,93539.45
2017-11-30T15:07:08.921Z,93545.03
2017-11-30T15:09:37.266Z,93540.73
2017-11-30T15:12:05.603Z,93543.02
2017-11-30T15:14:33.974Z,93543.73
2017-11-30T15:17:02.314Z,93544.38
2017-11-30T15:19:31.635Z,93544.41
2017-11-30T15:21:59.986Z,93542.39
2017-11-30T15:24:28.327Z,93547.13
2017-11-30T15:26:56.667Z,93544.44
2017-11-30T15:29:25.002Z,93546.70
2017-11-30T15:31:53.477Z,93547.20
2017-11-30T15:34:21.830Z,93551.48
2017-11-30T15:36:50.175Z,93547.26
2017-11-30T15:39:18.531Z,93547.63
2017-11-30T15:41:46.896Z,93550.08
2017-11-30T15:44:15.268Z,93550.55
2017-11-30T15:46:43.609Z,93547.01
2017-11-30T15:49:11.950Z,93544.34
2017-11-30T15:51:40.294Z,93547.14
2017-11-30T15:54:08.630Z,93550.18
2017-11-30T15:56:37.020Z,93547.45
2017-11-30T15:59:05.362Z,93546.77
2017-11-30T16:01:33.707Z,93549.91
2017-11-30T16:04:02.091Z,93552.15
2017-11-30T16:06:33.664Z,93559.25
2017-11-30T16:09:05.314Z,93557.94
2017-11-30T16:11:35.291Z,93560.39
2017-11-30T16:14:04.226Z,93558.89
2017-11-30T16:16:32.585Z,93558.74
2017-11-30T16:19:03.064Z,93557.77
2017-11-30T16:21:31.411Z,93560.58
2017-11-30T16:23:59.762Z,93561.63
2017-11-30T16:26:29.166Z,93567.26
2017-11-30T16:28:57.511Z,93565.38
2017-11-30T16:31:26.315Z,93568.83
2017-11-30T16:33:54.654Z,93572.53
2017-11-30T16:36:24.640Z,93570.52
2017-11-30T16:38:53.005Z,93572.76
2017-11-30T16:41:21.395Z,93581.55
2017-11-30T16:43:50.624Z,93569.49
2017-11-30T16:46:20.556Z,93580.73
2017-11-30T16:48:49.783Z,93585.97
2017-11-30T16:51:18.180Z,93586.02
2017-11-30T16:53:47.602Z,93583.92
2017-11-30T16:56:23.135Z,93587.55
2017-11-30T16:58:53.090Z,93589.50
2017-11-30T17:01:23.012Z,93589.48
2017-11-30T17:03:53.292Z,93591.66
2017-11-30T17:06:23.628Z,93592.62
2017-11-30T17:08:53.718Z,93589.91
2017-11-30T17:11:25.711Z,93592.64
2017-11-30T17:13:58.583Z,93595.45
2017-11-30T17:16:28.361Z,93596.27
2017-11-30T17:18:58.282Z,93593.36
2017-11-30T17:21:28.448Z,93600.67
2017-11-30T17:23:58.748Z,93598.92
2017-11-30T17:26:29.076Z,93600.41
2017-11-30T17:29:00.392Z,93608.17
2017-11-30T17:31:31.670Z,93602.97
2017-11-30T17:34:00.286Z,93602.41
2017-11-30T17:36:28.750Z,93600.29
2017-11-30T17:38:57.095Z,93608.48
2017-11-30T17:41:25.713Z,93610.62
2017-11-30T17:43:54.397Z,93606.81
2017-11-30T17:46:24.307Z,93611.26
2017-11-30T17:48:54.980Z,93615.95
2017-11-30T17:51:25.168Z,93618.88
2017-11-30T17:53:55.277Z,93617.23
2017-11-30T17:56:24.054Z,93621.28
2017-11-30T17:58:55.757Z,93624.67
2017-11-30T18:01:24.793Z,93625.05
2017-11-30T18:03:53.509Z,93624.62
2017-11-30T18:06:24.725Z,93632.77
2017-11-30T18:08:54.284Z,93630.41
2017-11-30T18:11:23.082Z,93631.90
2017-11-30T18:13:52.705Z,93635.41
2017-11-30T18:16:23.169Z,93633.87
2017-11-30T18:18:56.154Z,93640.55
2017-11-30T18:21:27.245Z,93633.98
2017-11-30T18:23:57.992Z,93634.00
2017-11-30T18:26:28.216Z,93634.94
2017-11-30T18:28:57.613Z,93649.28
2017-11-30T18:31:28.233Z,93641.75
2017-11-30T18:34:00.554Z,93642.95
2017-11-30T18:36:32.538Z,93645.48
2017-11-30T18:39:02.832Z,93646.45
2017-11-30T18:41:34.143Z,93646.34
2017-11-30T18:44:04.620Z,93649.70
2017-11-30T18:46:36.061Z,93648.97
2017-11-30T18:49:06.565Z,93650.36
2017-11-30T18:51:37.684Z,93647.86
2017-11-30T18:54:07.377Z,93650.59
2017-11-30T18:56:38.547Z,93653.23
2017-11-30T18:59:08.110Z,93645.00
2017-11-30T19:01:36.865Z,93651.33
2017-11-30T19:04:11.493Z,93649.36
2017-11-30T19:06:40.776Z,93653.63
2017-11-30T19:09:09.416Z,93658.23
2017-11-30T19:11:37.821Z,93654.82
2017-11-30T19:14:06.179Z,93658.09
2017-11-30T19:16:34.663Z,93663.53
2017-11-30T19:19:03.010Z,93662.84
2017-11-30T19:21:31.371Z,93654.36
2017-11-30T19:24:00.020Z,93660.91
2017-11-30T19:26:28.695Z,93662.16
2017-11-30T19:28:58.355Z,93665.22
2017-11-30T19:31:28.480Z,93665.58
2017-11-30T19:33:57.356Z,93670.16
2017-11-30T19:36:27.472Z,93670.59
2017-11-30T19:38:57.427Z,93673.88
2017-11-30T19:41:31.619Z,93678.48
2017-11-30T19:44:01.390Z,93680.88
2017-11-30T19:46:38.498Z,93680.11
2017-11-30T19:51:45.612Z,93685.45
2017-11-30T19:54:17.948Z,93685.23
2017-11-30T19:56:57.280Z,93690.83
2017-11-30T19:59:30.976Z,93695.41
2017-11-30T20:02:11.416Z,93701.77
2017-11-30T20:04:49.712Z,93702.45
2017-11-30T20:07:21.080Z,93700.63
2017-11-30T20:10:00.254Z,93702.22
2017-11-30T20:12:30.615Z,93701.33
2017-11-30T20:17:39.630Z,93707.63
2017-11-30T20:20:19.016Z,93707.63
2017-11-30T20:25:25.921Z,93710.25
2017-11-30T20:28:11.615Z,93711.88
2017-11-30T20:30:42.913Z,93713.30
2017-11-30T20:33:19.847Z,93712.19
2017-11-30T20:35:56.076Z,93718.02
2017-11-30T20:38:27.410Z,93716.70
2017-11-30T20:43:39.756Z,93713.77
2017-11-30T20:46:12.551Z,93712.36
2017-11-30T20:48:45.313Z,93716.89
2017-11-30T20:51:13.951Z,93721.98
2017-11-30T20:53:42.659Z,93725.14
2017-11-30T20:56:11.175Z,93728.33
2017-11-30T20:58:39.524Z,93729.91
2017-11-30T21:01:07.980Z,93728.92
2017-11-30T21:03:38.657Z,93724.84
2017-11-30T21:06:07.154Z,93727.30
2017-11-30T21:08:57.139Z,93724.04
2017-11-30T21:11:29.416Z,93718.39
2017-11-30T21:13:59.316Z,93718.09
2017-11-30T21:16:28.911Z,93720.42
2017-11-30T21:19:01.882Z,93723.39
2017-11-30T21:21:35.915Z,93726.56
2017-11-30T21:24:04.558Z,93721.64
2017-11-30T21:26:38.832Z,93730.06
2017-11-30T21:29:12.187Z,93728.48
2017-11-30T21:31:46.384Z,93733.39
2017-11-30T21:34:19.977Z,93735.81
2017-11-30T21:39:33.713Z,93744.31
2017-11-30T21:42:13.348Z,93749.56
2017-11-30T21:44:48.647Z,93751.27
2017-11-30T21:47:23.302Z,93753.42
2017-11-30T21:49:58.268Z,93749.02
2017-11-30T21:52:29.819Z,93759.95
2017-11-30T21:55:09.058Z,93756.67
2017-11-30T21:57:40.426Z,93761.53
2017-11-30T22:00:14.323Z,93763.50
2017-11-30T22:02:46.305Z,93771.97
2017-11-30T22:05:19.357Z,93771.03
2017-11-30T22:07:51.117Z,93773.63
2017-11-30T22:10:20.628Z,93774.14
2017-11-30T22:12:57.898Z,93768.34
2017-11-30T22:15:28.036Z,93776.06
2017-11-30T22:17:57.257Z,93776.41
2017-11-30T22:20:25.622Z,93778.55
2017-11-30T22:22:54.156Z,93779.95
2017-11-30T22:25:22.621Z,93783.14
2017-11-30T22:27:51.188Z,93783.27
2017-11-30T22:30:19.531Z,93792.05
2017-11-30T22:32:47.868Z,93795.11
2017-11-30T22:35:16.243Z,93788.25
2017-11-30T22:37:44.633Z,93790.39
2017-11-30T22:40:13.218Z,93787.08
2017-11-30T22:42:41.571Z,93797.31
2017-11-30T22:45:09.926Z,93793.27
2017-11-30T22:47:38.802Z,93795.95
2017-11-30T22:50:07.213Z,93796.15
2017-11-30T22:52:35.686Z,93800.77
2017-11-30T22:55:04.207Z,93804.81
2017-11-30T22:57:32.878Z,93810.92
2017-11-30T23:00:01.224Z,93811.19
2017-11-30T23:02:29.566Z,93812.34
2017-11-30T23:04:58.043Z,93816.42
2017-11-30T23:07:26.393Z,93820.72
2017-11-30T23:09:54.766Z,93814.16
2017-11-30T23:12:23.102Z,93818.41
2017-11-30T23:14:51.464Z,93819.48
2017-11-30T23:17:19.822Z,93816.39
2017-11-30T23:19:48.162Z,93819.66
2017-11-30T23:22:16.537Z,93824.81
2017-11-30T23:24:44.884Z,93828.13
2017-11-30T23:27:13.230Z,93828.16
2017-11-30T23:29:41.572Z,93829.20
2017-11-30T23:32:09.916Z,93833.98
2017-11-30T23:34:38.292Z,93831.05
2017-11-30T23:37:06.631Z,93837.61
2017-11-30T23:39:34.985Z,93838.93
2017-11-30T23:42:03.319Z,93840.05
2017-11-30T23:44:31.658Z,93842.63
2017-11-30T23:47:00.032Z,93842.67
2017-11-30T23:49:28.378Z,93838.69
2017-11-30T23:51:56.759Z,93846.08
2017-11-30T23:54:25.112Z,93842.72
2017-11-30T23:56:53.447Z,93840.70
2017-11-30T23:59:21.916Z,93843.95
